createdAt,value
2023-03-17T00:01:08.208Z,1.90
2023-03-17T00:03:38.578Z,1.65
2023-03-17T00:06:05.958Z,1.77
2023-03-17T00:08:34.136Z,2.72
2023-03-17T00:11:01.528Z,2.10
2023-03-17T00:13:29.038Z,1.52
2023-03-17T00:16:05.436Z,2.22
2023-03-17T00:18:33.439Z,1.92
2023-03-17T00:21:00.094Z,2.20
2023-03-17T00:23:26.748Z,1.63
2023-03-17T00:25:54.218Z,1.63
2023-03-17T00:28:22.855Z,2.10
2023-03-17T00:30:51.627Z,2.60
2023-03-17T00:33:23.585Z,2.10
2023-03-17T00:35:50.657Z,2.70
2023-03-17T00:38:18.592Z,2.17
2023-03-17T00:43:11.533Z,2.25
2023-03-17T00:45:39.191Z,2.00
2023-03-17T00:48:13.501Z,2.05
2023-03-17T00:50:39.978Z,2.08
2023-03-17T00:53:09.988Z,2.85
2023-03-17T00:55:37.165Z,2.17
2023-03-17T00:58:19.715Z,1.98
2023-03-17T01:00:46.229Z,2.40
2023-03-17T01:03:13.259Z,2.08
2023-03-17T01:05:40.271Z,2.15
2023-03-17T01:08:06.826Z,2.25
2023-03-17T01:10:33.325Z,2.20
2023-03-17T01:12:59.919Z,2.30
2023-03-17T01:15:31.523Z,2.10
2023-03-17T01:17:59.981Z,3.13
2023-03-17T01:20:29.590Z,2.05
2023-03-17T01:22:56.315Z,2.85
2023-03-17T01:25:23.259Z,3.40
2023-03-17T01:27:50.314Z,3.13
2023-03-17T01:30:20.537Z,2.40
2023-03-17T01:32:47.301Z,3.20
2023-03-17T01:35:14.337Z,2.28
2023-03-17T01:37:40.838Z,2.42
2023-03-17T01:40:09.521Z,2.58
2023-03-17T01:42:36.249Z,3.22
2023-03-17T01:45:08.689Z,2.20
2023-03-17T01:47:36.107Z,3.08
2023-03-17T01:50:07.467Z,1.77
2023-03-17T01:52:35.941Z,2.97
2023-03-17T01:55:16.002Z,2.75
2023-03-17T01:57:56.407Z,2.53
2023-03-17T02:00:24.151Z,3.50
2023-03-17T02:02:52.799Z,2.42
2023-03-17T02:05:31.032Z,2.17
2023-03-17T02:07:57.539Z,2.78
2023-03-17T02:10:25.697Z,2.70
2023-03-17T02:12:55.525Z,2.78
2023-03-17T02:15:22.733Z,3.30
2023-03-17T02:17:49.585Z,2.40
2023-03-17T02:20:16.048Z,3.10
2023-03-17T02:22:49.352Z,2.58
2023-03-17T02:25:17.354Z,3.72
2023-03-17T02:27:46.848Z,3.28
2023-03-17T02:30:16.728Z,3.83
2023-03-17T02:32:43.444Z,3.60
2023-03-17T02:35:10.271Z,3.80
2023-03-17T02:37:37.354Z,3.33
2023-03-17T02:40:05.623Z,3.17
2023-03-17T02:42:35.616Z,3.20
2023-03-17T02:45:02.303Z,3.38
2023-03-17T02:47:28.837Z,2.78
2023-03-17T02:49:55.405Z,2.97
2023-03-17T02:52:21.858Z,3.03
2023-03-17T02:54:48.545Z,3.50
2023-03-17T02:57:15.124Z,3.50
2023-03-17T02:59:42.563Z,2.95
2023-03-17T03:02:09.477Z,3.85
2023-03-17T03:04:35.987Z,2.72
2023-03-17T03:07:02.803Z,3.42
2023-03-17T03:09:29.775Z,2.95
2023-03-17T03:11:56.781Z,2.88
2023-03-17T03:14:23.713Z,3.17
2023-03-17T03:16:50.346Z,3.13
2023-03-17T03:19:17.489Z,2.75
2023-03-17T03:21:44.371Z,2.67
2023-03-17T03:24:11.544Z,3.55
2023-03-17T03:26:38.362Z,3.45
2023-03-17T03:29:05.890Z,2.67
2023-03-17T03:31:32.471Z,3.10
2023-03-17T03:33:58.955Z,2.92
2023-03-17T03:36:26.808Z,3.15
2023-03-17T03:38:53.329Z,3.75
2023-03-17T03:41:19.865Z,2.80
2023-03-17T03:43:46.342Z,2.90
2023-03-17T03:46:12.946Z,3.33
2023-03-17T03:48:39.503Z,2.45
2023-03-17T03:51:06.027Z,2.78
2023-03-17T03:53:32.489Z,2.97
2023-03-17T03:55:58.937Z,2.70
2023-03-17T03:58:25.674Z,2.75
2023-03-17T04:00:52.147Z,2.80
2023-03-17T04:03:18.624Z,2.88
2023-03-17T04:05:45.428Z,3.10
2023-03-17T04:08:12.186Z,2.60
2023-03-17T04:10:38.729Z,2.97
2023-03-17T04:13:05.330Z,3.17
2023-03-17T04:15:31.982Z,3.33
2023-03-17T04:17:58.480Z,2.78
2023-03-17T04:20:25.062Z,2.67
2023-03-17T04:22:51.749Z,4.03
2023-03-17T04:25:18.705Z,2.58
2023-03-17T04:27:45.183Z,3.30
2023-03-17T04:30:13.834Z,2.35
2023-03-17T04:32:41.722Z,2.60
2023-03-17T04:35:11.782Z,2.75
2023-03-17T04:37:38.869Z,2.22
2023-03-17T04:40:09.881Z,2.95
2023-03-17T04:42:37.441Z,2.92
2023-03-17T04:45:05.452Z,4.10
2023-03-17T04:47:32.521Z,3.80
2023-03-17T04:49:59.116Z,3.05
2023-03-17T04:52:25.602Z,2.90
2023-03-17T04:54:52.049Z,2.22
2023-03-17T04:57:18.491Z,3.20
2023-03-17T04:59:45.280Z,3.05
2023-03-17T05:02:11.762Z,3.45
2023-03-17T05:04:38.336Z,3.22
2023-03-17T05:07:07.417Z,3.58
2023-03-17T05:09:33.962Z,3.20
2023-03-17T05:12:00.469Z,3.35
2023-03-17T05:14:26.967Z,3.08
2023-03-17T05:16:53.571Z,2.42
2023-03-17T05:19:20.377Z,2.80
2023-03-17T05:21:47.631Z,3.25
2023-03-17T05:24:14.095Z,2.85
2023-03-17T05:26:40.671Z,3.40
2023-03-17T05:29:07.302Z,3.40
2023-03-17T05:31:33.955Z,2.70
2023-03-17T05:34:00.496Z,2.72
2023-03-17T05:36:27.004Z,2.40
2023-03-17T05:38:53.590Z,2.45
2023-03-17T05:41:20.402Z,2.63
2023-03-17T05:43:47.006Z,3.05
2023-03-17T05:46:13.726Z,2.88
2023-03-17T05:48:40.707Z,2.13
2023-03-17T05:51:07.476Z,3.00
2023-03-17T05:53:36.001Z,2.25
2023-03-17T05:56:03.028Z,2.97
2023-03-17T05:58:29.589Z,2.55
2023-03-17T06:00:56.294Z,2.35
2023-03-17T06:03:22.822Z,2.70
2023-03-17T06:05:49.379Z,2.85
2023-03-17T06:08:15.818Z,2.30
2023-03-17T06:10:43.064Z,2.83
2023-03-17T06:13:10.944Z,2.88
2023-03-17T06:15:37.830Z,3.45
2023-03-17T06:18:08.178Z,2.38
2023-03-17T06:20:34.887Z,2.22
2023-03-17T06:23:05.082Z,2.42
2023-03-17T06:25:35.446Z,3.03
2023-03-17T06:28:04.105Z,2.55
2023-03-17T06:30:40.417Z,2.70
2023-03-17T06:33:08.292Z,2.05
2023-03-17T06:35:35.148Z,2.90
2023-03-17T06:38:02.196Z,2.70
2023-03-17T06:40:28.849Z,2.42
2023-03-17T06:42:55.364Z,3.00
2023-03-17T06:45:21.887Z,2.50
2023-03-17T06:47:48.357Z,2.20
2023-03-17T06:50:14.936Z,3.00
2023-03-17T06:52:41.532Z,3.33
2023-03-17T06:55:08.844Z,2.78
2023-03-17T06:57:35.818Z,2.70
2023-03-17T07:00:02.428Z,2.10
2023-03-17T07:02:28.917Z,2.47
2023-03-17T07:04:57.740Z,2.55
2023-03-17T07:07:24.865Z,3.13
2023-03-17T07:09:52.728Z,2.92
2023-03-17T07:12:20.128Z,2.50
2023-03-17T07:14:46.652Z,2.70
2023-03-17T07:17:14.558Z,2.80
2023-03-17T07:19:44.513Z,2.47
2023-03-17T07:22:14.200Z,3.03
2023-03-17T07:24:43.076Z,2.55
2023-03-17T07:27:09.804Z,3.58
2023-03-17T07:29:36.757Z,3.15
2023-03-17T07:32:06.416Z,2.70
2023-03-17T07:34:33.089Z,3.00
2023-03-17T07:36:59.613Z,3.35
2023-03-17T07:39:26.103Z,2.97
2023-03-17T07:41:55.139Z,2.53
2023-03-17T07:44:23.078Z,2.97
2023-03-17T07:46:50.562Z,2.75
2023-03-17T07:49:20.984Z,2.92
2023-03-17T07:51:54.241Z,2.63
2023-03-17T07:54:21.150Z,2.97
2023-03-17T07:56:47.609Z,2.80
2023-03-17T07:59:14.134Z,2.63
2023-03-17T08:01:40.674Z,2.63
2023-03-17T08:04:07.563Z,2.42
2023-03-17T08:06:34.210Z,2.90
2023-03-17T08:09:00.665Z,3.42
2023-03-17T08:11:29.467Z,2.42
2023-03-17T08:13:56.161Z,2.78
2023-03-17T08:16:23.034Z,2.38
2023-03-17T08:18:49.726Z,3.05
2023-03-17T08:21:16.866Z,2.85
2023-03-17T08:23:43.681Z,2.92
2023-03-17T08:26:10.337Z,3.42
2023-03-17T08:28:37.398Z,3.05
2023-03-17T08:31:13.555Z,2.65
2023-03-17T08:33:42.094Z,2.90
2023-03-17T08:36:09.535Z,3.00
2023-03-17T08:38:37.571Z,2.65
2023-03-17T08:41:06.676Z,2.70
2023-03-17T08:43:33.963Z,2.92
2023-03-17T08:46:06.647Z,2.58
2023-03-17T08:48:35.614Z,3.10
2023-03-17T08:51:02.238Z,3.30
2023-03-17T08:53:29.833Z,2.72
2023-03-17T08:55:59.357Z,2.90
2023-03-17T08:58:26.099Z,3.28
2023-03-17T09:00:53.818Z,2.55
2023-03-17T09:03:21.082Z,3.17
2023-03-17T09:05:48.631Z,3.03
2023-03-17T09:08:15.313Z,2.60
2023-03-17T09:10:44.206Z,3.00
2023-03-17T09:13:11.579Z,2.70
2023-03-17T09:15:38.875Z,3.08
2023-03-17T09:18:06.448Z,3.67
2023-03-17T09:20:33.797Z,4.13
2023-03-17T09:23:00.761Z,2.70
2023-03-17T09:25:27.520Z,2.60
2023-03-17T09:27:54.170Z,3.25
2023-03-17T09:30:20.791Z,3.10
2023-03-17T09:32:47.514Z,3.17
2023-03-17T09:35:14.346Z,2.50
2023-03-17T09:37:40.910Z,2.55
2023-03-17T09:40:08.374Z,2.60
2023-03-17T09:42:49.840Z,2.25
2023-03-17T09:45:31.283Z,2.45
2023-03-17T09:48:22.793Z,2.40
2023-03-17T09:51:10.734Z,2.42
2023-03-17T09:53:52.696Z,2.65
2023-03-17T09:56:20.106Z,3.22
2023-03-17T09:59:23.234Z,2.97
2023-03-17T10:01:50.309Z,2.63
2023-03-17T10:04:18.870Z,2.75
2023-03-17T10:06:46.808Z,2.13
2023-03-17T10:09:32.076Z,2.60
2023-03-17T10:12:09.686Z,2.65
2023-03-17T10:15:03.124Z,2.65
2023-03-17T10:17:41.428Z,3.33
2023-03-17T10:20:29.698Z,2.65
2023-03-17T10:22:58.290Z,2.55
2023-03-17T10:25:29.274Z,2.35
2023-03-17T10:27:59.972Z,2.17
2023-03-17T10:30:27.363Z,2.58
2023-03-17T10:32:57.341Z,2.50
2023-03-17T10:35:24.494Z,2.70
2023-03-17T10:37:53.399Z,2.67
2023-03-17T10:40:28.511Z,10.98
2023-03-17T10:43:01.827Z,2.30
2023-03-17T10:45:30.842Z,2.70
2023-03-17T10:47:58.502Z,2.35
2023-03-17T10:50:32.026Z,2.70
2023-03-17T10:53:02.867Z,2.22
2023-03-17T10:55:39.795Z,2.75
2023-03-17T10:58:18.844Z,2.58
2023-03-17T11:00:54.366Z,2.30
2023-03-17T11:03:27.146Z,2.45
2023-03-17T11:06:08.577Z,2.35
2023-03-17T11:08:41.593Z,3.30
2023-03-17T11:11:22.571Z,2.90
2023-03-17T11:13:49.103Z,2.55
2023-03-17T11:16:22.207Z,2.45
2023-03-17T11:18:51.626Z,2.80
2023-03-17T11:21:21.205Z,2.83
2023-03-17T11:23:53.010Z,2.10
2023-03-17T11:26:50.932Z,2.13
2023-03-17T11:29:22.330Z,1.95
2023-03-17T11:31:59.657Z,2.28
2023-03-17T11:34:52.560Z,1.90
2023-03-17T11:37:44.408Z,3.88
2023-03-17T11:40:32.145Z,2.20
2023-03-17T11:43:24.142Z,2.15
2023-03-17T11:46:13.224Z,2.30
2023-03-17T11:48:48.863Z,2.25
2023-03-17T11:51:27.525Z,2.33
2023-03-17T11:54:08.105Z,2.38
2023-03-17T11:57:05.114Z,2.20
2023-03-17T11:59:52.194Z,2.42
2023-03-17T12:02:30.669Z,2.63
2023-03-17T12:05:01.424Z,2.30
2023-03-17T12:07:39.335Z,1.85
2023-03-17T12:10:21.755Z,2.33
2023-03-17T12:12:59.667Z,1.55
2023-03-17T12:15:30.994Z,2.35
2023-03-17T12:18:02.886Z,1.52
2023-03-17T12:20:41.009Z,2.00
2023-03-17T12:23:33.284Z,2.13
2023-03-17T12:26:06.068Z,1.90
2023-03-17T12:28:37.542Z,1.83
2023-03-17T12:31:12.802Z,2.40
2023-03-17T12:33:39.328Z,1.90
2023-03-17T12:36:08.036Z,2.10
2023-03-17T12:38:40.421Z,1.80
2023-03-17T12:41:19.173Z,2.00
2023-03-17T12:44:00.151Z,2.63
2023-03-17T12:46:29.838Z,1.92
2023-03-17T12:48:56.330Z,2.20
2023-03-17T12:51:43.851Z,2.17
2023-03-17T12:54:22.154Z,1.67
2023-03-17T12:56:50.956Z,1.73
2023-03-17T12:59:20.149Z,1.88
2023-03-17T13:01:55.754Z,1.60
2023-03-17T13:04:27.015Z,2.33
2023-03-17T13:06:58.957Z,1.73
2023-03-17T13:09:31.905Z,1.40
2023-03-17T13:12:02.103Z,1.58
2023-03-17T13:14:47.345Z,1.70
2023-03-17T13:17:17.273Z,1.23
2023-03-17T13:20:10.339Z,1.60
2023-03-17T13:22:57.085Z,1.90
2023-03-17T13:25:45.400Z,1.98
2023-03-17T13:28:11.966Z,2.10
2023-03-17T13:30:38.616Z,2.35
2023-03-17T13:33:11.415Z,2.00
2023-03-17T13:35:43.119Z,1.48
2023-03-17T13:38:34.603Z,1.48
2023-03-17T13:41:06.904Z,2.05
2023-03-17T13:43:58.157Z,1.73
2023-03-17T13:46:37.527Z,1.95
2023-03-17T13:49:32.092Z,2.20
2023-03-17T13:52:12.942Z,2.22
2023-03-17T13:54:49.747Z,1.75
2023-03-17T13:57:26.470Z,1.90
2023-03-17T14:00:17.706Z,1.90
2023-03-17T14:02:44.700Z,2.13
2023-03-17T14:05:23.832Z,2.22
2023-03-17T14:07:58.228Z,1.70
2023-03-17T14:10:26.918Z,1.75
2023-03-17T14:13:12.374Z,1.95
2023-03-17T14:16:03.798Z,1.77
2023-03-17T14:18:41.533Z,1.90
2023-03-17T14:21:23.328Z,2.05
2023-03-17T14:26:24.336Z,1.60
2023-03-17T14:28:51.581Z,1.40
2023-03-17T14:31:24.309Z,1.52
2023-03-17T14:34:01.249Z,1.63
2023-03-17T14:36:28.703Z,1.65
2023-03-17T14:38:56.758Z,1.20
2023-03-17T14:41:25.695Z,1.55
2023-03-17T14:43:54.488Z,1.60
2023-03-17T14:46:36.436Z,1.45
2023-03-17T14:49:19.272Z,1.50
2023-03-17T14:51:49.359Z,1.52
2023-03-17T14:54:18.601Z,1.80
2023-03-17T14:56:51.626Z,2.33
2023-03-17T14:59:39.183Z,1.48
2023-03-17T15:07:36.893Z,1.40
2023-03-17T15:10:04.863Z,1.42
2023-03-17T15:12:31.620Z,1.52
2023-03-17T15:15:03.840Z,1.75
2023-03-17T15:17:37.438Z,1.75
2023-03-17T15:20:13.797Z,1.63
2023-03-17T15:22:48.518Z,1.95
2023-03-17T15:25:35.012Z,2.47
2023-03-17T15:28:01.600Z,2.28
2023-03-17T15:30:37.382Z,2.05
2023-03-17T15:33:18.902Z,3.90
2023-03-17T15:35:45.510Z,2.33
2023-03-17T15:38:12.561Z,2.40
2023-03-17T15:40:39.102Z,2.55
2023-03-17T15:43:05.590Z,1.50
2023-03-17T15:45:32.166Z,1.80
2023-03-17T15:47:58.758Z,3.53
2023-03-17T15:50:31.175Z,1.75
2023-03-17T15:52:58.011Z,1.95
2023-03-17T15:55:29.402Z,1.85
2023-03-17T15:57:56.800Z,2.05
2023-03-17T16:00:25.359Z,2.17
2023-03-17T16:02:54.013Z,1.88
2023-03-17T16:05:25.959Z,2.03
2023-03-17T16:07:53.523Z,2.03
2023-03-17T16:10:22.501Z,2.00
2023-03-17T16:12:50.386Z,1.77
2023-03-17T16:15:25.215Z,2.72
2023-03-17T16:17:54.223Z,2.35
2023-03-17T16:20:31.467Z,1.90
2023-03-17T16:23:06.510Z,1.85
2023-03-17T16:25:33.177Z,2.13
2023-03-17T16:28:01.000Z,1.95
2023-03-17T16:30:33.025Z,2.22
2023-03-17T16:33:02.200Z,2.10
2023-03-17T16:35:29.239Z,1.92
2023-03-17T16:37:55.856Z,2.08
2023-03-17T16:40:34.127Z,1.88
2023-03-17T16:43:01.630Z,1.90
2023-03-17T16:45:30.057Z,1.98
2023-03-17T16:47:57.225Z,2.40
2023-03-17T16:50:26.553Z,2.50
2023-03-17T16:52:53.204Z,1.85
2023-03-17T16:55:20.739Z,2.25
2023-03-17T16:57:49.673Z,2.45
2023-03-17T17:00:28.559Z,2.63
2023-03-17T17:02:55.795Z,2.17
2023-03-17T17:05:28.409Z,2.20
2023-03-17T17:07:57.437Z,1.98
2023-03-17T17:10:26.942Z,2.55
2023-03-17T17:12:53.850Z,2.25
2023-03-17T17:15:21.738Z,1.90
2023-03-17T17:17:51.038Z,2.45
2023-03-17T17:20:28.773Z,1.90
2023-03-17T17:22:55.554Z,2.40
2023-03-17T17:25:22.167Z,2.20
2023-03-17T17:27:49.344Z,1.90
2023-03-17T17:30:18.620Z,2.83
2023-03-17T17:32:45.795Z,1.98
2023-03-17T17:35:13.084Z,2.05
2023-03-17T17:37:39.679Z,3.22
2023-03-17T17:40:07.591Z,2.30
2023-03-17T17:42:34.519Z,2.35
2023-03-17T17:45:01.085Z,2.33
2023-03-17T17:47:32.148Z,2.60
2023-03-17T17:49:59.327Z,2.55
2023-03-17T17:52:26.058Z,2.88
2023-03-17T17:54:52.754Z,2.65
2023-03-17T17:57:19.353Z,2.40
2023-03-17T17:59:45.984Z,3.22
2023-03-17T18:02:12.769Z,2.88
2023-03-17T18:04:39.505Z,3.45
2023-03-17T18:07:06.107Z,2.70
2023-03-17T18:09:33.104Z,3.20
2023-03-17T18:11:59.645Z,3.10
2023-03-17T18:14:26.590Z,3.97
2023-03-17T18:16:53.386Z,3.47
2023-03-17T18:19:20.060Z,3.35
2023-03-17T18:21:47.029Z,3.47
2023-03-17T18:24:14.638Z,3.78
2023-03-17T18:26:41.704Z,4.07
2023-03-17T18:29:09.241Z,2.80
2023-03-17T18:31:45.987Z,3.42
2023-03-17T18:34:17.708Z,3.00
2023-03-17T18:36:44.927Z,3.55
2023-03-17T18:39:11.438Z,3.40
2023-03-17T18:41:38.081Z,3.92
2023-03-17T18:44:04.867Z,3.20
2023-03-17T18:46:31.433Z,2.97
2023-03-17T18:48:57.976Z,3.45
2023-03-17T18:51:24.465Z,3.20
2023-03-17T18:58:41.301Z,3.20
2023-03-17T19:03:52.022Z,4.00
2023-03-17T19:09:00.271Z,3.90
2023-03-17T19:14:13.989Z,3.55
2023-03-17T19:39:08.684Z,4.55
2023-03-17T19:55:43.522Z,3.78
2023-03-17T19:58:12.255Z,4.43
2023-03-17T20:00:41.197Z,3.80
2023-03-17T20:03:07.984Z,4.85
2023-03-17T20:05:34.846Z,3.90
2023-03-17T20:08:01.735Z,3.90
2023-03-17T20:10:28.586Z,3.90
2023-03-17T20:12:55.292Z,3.80
2023-03-17T20:15:21.782Z,3.33
2023-03-17T20:29:50.572Z,5.82
2023-03-17T20:34:55.591Z,4.60
2023-03-17T20:37:22.781Z,4.18
2023-03-17T20:42:52.255Z,5.05
2023-03-17T20:47:59.008Z,4.63
2023-03-17T20:50:28.165Z,4.43
2023-03-17T20:52:55.462Z,4.63
2023-03-17T20:55:21.984Z,4.53
2023-03-17T20:57:49.893Z,4.93
2023-03-17T21:00:20.206Z,4.53
2023-03-17T21:02:50.115Z,4.47
2023-03-17T21:05:20.155Z,5.40
2023-03-17T21:07:47.980Z,4.95
2023-03-17T21:10:15.375Z,5.45
2023-03-17T21:12:42.273Z,4.80
2023-03-17T21:15:10.124Z,4.68
2023-03-17T21:17:42.388Z,5.18
2023-03-17T21:20:11.642Z,5.50
2023-03-17T21:22:40.068Z,5.03
2023-03-17T21:25:08.775Z,5.30
2023-03-17T21:27:38.855Z,6.28
2023-03-17T21:30:06.938Z,5.65
2023-03-17T21:32:33.494Z,5.30
2023-03-17T21:35:00.083Z,5.60
2023-03-17T21:37:26.602Z,5.30
2023-03-17T21:39:53.211Z,5.55
2023-03-17T21:42:19.932Z,4.78
2023-03-17T21:44:48.245Z,4.90
2023-03-17T21:47:15.545Z,5.70
2023-03-17T21:49:42.146Z,5.60
2023-03-17T21:52:09.456Z,4.72
2023-03-17T21:54:36.753Z,5.57
2023-03-17T21:57:03.856Z,5.20
2023-03-17T21:59:32.290Z,5.18
2023-03-17T22:01:59.673Z,5.32
2023-03-17T22:04:26.316Z,4.70
2023-03-17T22:06:53.893Z,5.30
2023-03-17T22:09:20.635Z,7.00
2023-03-17T22:11:47.520Z,5.93
2023-03-17T22:14:17.312Z,5.63
2023-03-17T22:16:43.836Z,5.97
2023-03-17T22:19:10.533Z,4.63
2023-03-17T22:21:37.572Z,5.93
2023-03-17T22:24:04.222Z,5.60
2023-03-17T22:26:30.864Z,4.78
2023-03-17T22:28:58.329Z,5.53
2023-03-17T22:31:27.161Z,5.57
2023-03-17T22:33:56.247Z,5.45
2023-03-17T22:36:24.593Z,5.32
2023-03-17T22:38:51.058Z,5.93
2023-03-17T22:41:20.831Z,5.45
2023-03-17T22:43:47.459Z,6.45
2023-03-17T22:46:15.208Z,5.47
2023-03-17T22:48:42.830Z,5.00
2023-03-17T22:51:13.086Z,4.47
2023-03-17T22:53:39.910Z,5.07
2023-03-17T22:56:07.345Z,5.78
2023-03-17T22:58:34.479Z,5.18
2023-03-17T23:01:01.202Z,5.28
2023-03-17T23:03:28.000Z,4.90
2023-03-17T23:05:58.279Z,4.78
2023-03-17T23:08:25.254Z,4.43
2023-03-17T23:10:52.444Z,5.72
2023-03-17T23:13:19.984Z,4.95
2023-03-17T23:15:47.451Z,5.25
2023-03-17T23:18:14.086Z,5.00
2023-03-17T23:20:41.942Z,4.22
2023-03-17T23:23:10.250Z,4.63
2023-03-17T23:25:38.160Z,5.10
2023-03-17T23:28:05.706Z,3.72
2023-03-17T23:30:32.409Z,4.53
2023-03-17T23:32:59.264Z,4.45
2023-03-17T23:35:25.981Z,4.82
2023-03-17T23:37:52.496Z,4.68
2023-03-17T23:40:19.072Z,4.47
2023-03-17T23:42:48.774Z,4.72
2023-03-17T23:45:16.695Z,4.63
2023-03-17T23:47:44.211Z,4.78
2023-03-17T23:50:12.307Z,4.55
2023-03-17T23:52:38.956Z,4.00
2023-03-17T23:55:05.887Z,4.82
2023-03-17T23:57:33.117Z,4.22
